Time;durP1;ratioP1;P1;durP2;ratioP2;P2;SDS_P1;SDS_P2;PMS_P1;PMS_P2;Temp;Humidity;BMP_temperature;BMP_pressure;BME280_temperature;BME280_humidity;BME280_pressure;Samples;Min_cycle;Max_cycle;Signal;HPM_P1;HPM_P2
2022/09/22 00:01:33;;;;;;;9.33;6.33;;;9.90;99.90;;;;;;5114828;28;20207;-86
2022/09/22 00:04:02;;;;;;;8.63;6.80;;;9.90;99.90;;;;;;5115001;28;20245;-88
2022/09/22 00:06:31;;;;;;;10.23;6.20;;;9.90;99.90;;;;;;5114940;28;20207;-87
2022/09/22 00:09:01;;;;;;;10.63;6.70;;;9.80;99.90;;;;;;5114185;28;20550;-87
2022/09/22 00:11:29;;;;;;;7.87;5.73;;;9.80;99.90;;;;;;5114566;28;20199;-86
2022/09/22 00:13:58;;;;;;;7.93;5.80;;;9.80;99.90;;;;;;5114142;28;20220;-87
2022/09/22 00:16:28;;;;;;;8.47;5.43;;;9.80;99.90;;;;;;5114499;28;20185;-86
2022/09/22 00:18:58;;;;;;;11.23;6.70;;;9.80;99.90;;;;;;5114523;28;20204;-87
2022/09/22 00:21:26;;;;;;;13.10;7.60;;;9.70;99.90;;;;;;5114457;28;20193;-86
2022/09/22 00:23:54;;;;;;;8.00;6.07;;;9.80;99.90;;;;;;5112836;28;20204;-86
2022/09/22 00:26:24;;;;;;;10.57;6.43;;;9.70;99.90;;;;;;5114492;28;20212;-86
2022/09/22 00:28:51;;;;;;;10.60;6.97;;;9.70;99.90;;;;;;5113963;28;20200;-85
2022/09/22 00:31:22;;;;;;;8.43;6.17;;;9.70;99.90;;;;;;5114321;28;20196;-85
2022/09/22 00:33:50;;;;;;;8.83;6.00;;;9.60;99.90;;;;;;5114071;28;20259;-85
2022/09/22 00:36:20;;;;;;;6.67;5.83;;;9.50;99.90;;;;;;5114503;28;20212;-84
2022/09/22 00:38:49;;;;;;;9.03;6.83;;;9.50;99.90;;;;;;5114086;28;20208;-85
2022/09/22 00:41:18;;;;;;;8.13;6.67;;;9.50;99.90;;;;;;5114207;28;20288;-85
2022/09/22 00:43:49;;;;;;;9.03;6.87;;;9.50;99.90;;;;;;5114040;28;20200;-86
2022/09/22 00:46:22;;;;;;;12.23;7.63;;;9.50;99.90;;;;;;5115044;28;20189;-86
2022/09/22 00:48:55;;;;;;;10.20;6.40;;;9.60;99.90;;;;;;5116248;28;20200;-86
2022/09/22 00:51:26;;;;;;;9.57;6.80;;;9.60;99.90;;;;;;5120951;28;20207;-88
2022/09/22 00:53:56;;;;;;;9.00;6.60;;;9.60;99.90;;;;;;5118389;28;20223;-87
2022/09/22 00:56:28;;;;;;;9.87;7.10;;;9.60;99.90;;;;;;5118523;28;20566;-87
2022/09/22 00:58:58;;;;;;;9.97;6.73;;;9.50;99.90;;;;;;5118485;28;20226;-89
2022/09/22 01:01:25;;;;;;;16.60;7.10;;;9.50;99.90;;;;;;5118552;28;20193;-88
2022/09/22 01:03:55;;;;;;;7.17;6.47;;;9.60;99.90;;;;;;5119057;28;20207;-86
2022/09/22 01:06:27;;;;;;;7.87;6.47;;;9.60;99.90;;;;;;5116471;28;20664;-88
2022/09/22 01:08:54;;;;;;;10.40;6.43;;;9.50;99.90;;;;;;5114051;28;20200;-88
2022/09/22 01:11:22;;;;;;;10.37;6.70;;;9.50;99.90;;;;;;5114150;28;20184;-88
2022/09/22 01:14:01;;;;;;;9.03;7.03;;;9.50;99.90;;;;;;5114621;28;20192;-88
2022/09/22 01:16:39;;;;;;;6.77;5.80;;;9.40;99.90;;;;;;5115119;28;20197;-88
2022/09/22 01:19:40;;;;;;;7.60;6.70;;;9.30;99.90;;;;;;5114655;28;20204;-88
2022/09/22 01:22:19;;;;;;;9.33;6.60;;;9.40;99.90;;;;;;5114744;28;20264;-88
2022/09/22 01:24:59;;;;;;;10.80;6.47;;;9.40;99.90;;;;;;5114463;28;20590;-88
2022/09/22 01:27:56;;;;;;;8.37;6.37;;;9.40;99.90;;;;;;5118557;28;20196;-88
2022/09/22 01:30:29;;;;;;;8.77;6.03;;;9.40;99.90;;;;;;5117980;28;20204;-87
2022/09/22 01:33:22;;;;;;;8.97;7.07;;;9.50;99.90;;;;;;5118358;28;20185;-87
2022/09/22 01:36:03;;;;;;;8.73;6.70;;;9.40;99.90;;;;;;5115129;28;20224;-88
2022/09/22 01:38:36;;;;;;;9.53;7.37;;;9.40;99.90;;;;;;5117681;28;20640;-88
2022/09/22 01:41:07;;;;;;;9.47;7.07;;;9.40;99.90;;;;;;5117627;28;20196;-87
2022/09/22 01:43:40;;;;;;;10.53;7.73;;;9.40;99.90;;;;;;5117227;28;20433;-88
2022/09/22 01:46:12;;;;;;;9.90;7.23;;;9.30;99.90;;;;;;5117948;27;20478;-88
2022/09/22 01:48:43;;;;;;;8.53;6.97;;;9.40;99.90;;;;;;5117897;28;20200;-88
2022/09/22 01:51:16;;;;;;;8.63;6.50;;;9.20;99.90;;;;;;5117213;28;20193;-88
2022/09/22 01:53:48;;;;;;;8.80;6.90;;;9.30;99.90;;;;;;5117542;28;20204;-88
2022/09/22 01:56:19;;;;;;;8.37;7.43;;;9.30;99.90;;;;;;5117873;28;20696;-87
2022/09/22 01:58:50;;;;;;;7.43;6.70;;;9.20;99.90;;;;;;5116919;28;20243;-88
2022/09/22 02:01:24;;;;;;;9.67;6.87;;;9.30;99.90;;;;;;5117277;28;20652;-87
2022/09/22 02:03:56;;;;;;;7.23;6.53;;;9.10;99.90;;;;;;5117384;28;20268;-88
2022/09/22 02:06:28;;;;;;;10.93;6.77;;;9.20;99.90;;;;;;5117359;28;20204;-87
2022/09/22 02:09:00;;;;;;;9.83;6.20;;;9.30;99.90;;;;;;5117485;28;20204;-88
2022/09/22 02:11:27;;;;;;;7.70;6.80;;;9.20;99.90;;;;;;5117420;28;20205;-88
2022/09/22 02:13:54;;;;;;;7.87;7.07;;;9.20;99.90;;;;;;5117193;28;20204;-88
2022/09/22 02:16:26;;;;;;;12.30;6.80;;;9.20;99.90;;;;;;5117054;28;20578;-88
2022/09/22 02:18:55;;;;;;;7.57;6.13;;;9.10;99.90;;;;;;5117370;28;20188;-88
2022/09/22 02:21:26;;;;;;;6.93;6.33;;;9.00;99.90;;;;;;5116487;28;20647;-87
2022/09/22 02:23:59;;;;;;;7.97;6.47;;;8.80;99.90;;;;;;5117266;28;20655;-88
2022/09/22 02:26:32;;;;;;;9.03;6.60;;;8.80;99.90;;;;;;5117085;28;20208;-89
2022/09/22 02:29:05;;;;;;;7.43;6.73;;;8.90;99.90;;;;;;5116880;28;20205;-88
2022/09/22 02:31:35;;;;;;;8.63;7.23;;;8.90;99.90;;;;;;5116537;28;20210;-87
2022/09/22 02:34:03;;;;;;;8.97;7.70;;;8.90;99.90;;;;;;5116502;28;20205;-89
2022/09/22 02:36:51;;;;;;;8.60;7.80;;;8.80;99.90;;;;;;5115356;28;20447;-88
2022/09/22 02:39:21;;;;;;;7.37;6.63;;;8.80;99.90;;;;;;5116668;27;20200;-89
2022/09/22 02:42:03;;;;;;;9.83;6.80;;;8.80;99.90;;;;;;5116518;28;20536;-87
2022/09/22 02:44:36;;;;;;;11.70;6.87;;;8.80;99.90;;;;;;5116715;28;20204;-89
2022/09/22 02:47:10;;;;;;;10.30;6.77;;;8.80;99.90;;;;;;5116262;28;20193;-89
2022/09/22 02:49:39;;;;;;;9.53;7.07;;;8.80;99.90;;;;;;5116375;28;20582;-88
2022/09/22 02:52:10;;;;;;;8.40;6.20;;;8.70;99.90;;;;;;5116711;28;20196;-88
2022/09/22 02:54:38;;;;;;;8.37;6.57;;;8.70;99.90;;;;;;5116265;28;20671;-88
2022/09/22 02:57:05;;;;;;;8.80;6.80;;;8.70;99.90;;;;;;5116376;28;20208;-88
2022/09/22 02:59:33;;;;;;;7.53;6.60;;;8.60;99.90;;;;;;5116353;28;20606;-88
2022/09/22 03:02:01;;;;;;;11.07;6.43;;;8.60;99.90;;;;;;5116189;28;20210;-90
2022/09/22 03:04:32;;;;;;;8.93;8.05;;;8.60;99.90;;;;;;5115225;28;20485;-89
2022/09/22 03:07:00;;;;;;;9.70;6.67;;;8.70;99.90;;;;;;5116242;28;20192;-89
2022/09/22 03:09:27;;;;;;;11.77;6.47;;;8.60;99.90;;;;;;5115968;28;20209;-89
2022/09/22 03:11:56;;;;;;;8.53;6.20;;;8.60;99.90;;;;;;5115821;28;20207;-88
2022/09/22 03:14:29;;;;;;;7.43;6.50;;;8.50;99.90;;;;;;5116347;28;20201;-89
2022/09/22 03:16:56;;;;;;;10.77;6.63;;;8.50;99.90;;;;;;5116324;28;20228;-88
2022/09/22 03:19:23;;;;;;;9.20;6.60;;;8.50;99.90;;;;;;5115955;28;20201;-88
2022/09/22 03:21:52;;;;;;;7.27;6.57;;;8.50;99.90;;;;;;5116477;28;20189;-88
2022/09/22 03:24:20;;;;;;;11.60;6.73;;;8.50;99.90;;;;;;5116185;28;20207;-88
2022/09/22 03:26:47;;;;;;;6.73;5.77;;;8.40;99.90;;;;;;5115816;28;20204;-88
2022/09/22 03:29:14;;;;;;;8.93;6.37;;;8.40;99.90;;;;;;5115856;28;20189;-89
2022/09/22 03:31:41;;;;;;;8.80;7.87;;;8.40;99.90;;;;;;5115016;28;20436;-88
2022/09/22 03:34:08;;;;;;;7.97;6.70;;;8.60;99.90;;;;;;5115483;28;20204;-88
2022/09/22 03:36:37;;;;;;;7.73;6.93;;;8.60;99.90;;;;;;5115256;28;20224;-89
2022/09/22 03:39:05;;;;;;;8.50;7.50;;;8.60;99.90;;;;;;5115584;28;20215;-89
2022/09/22 03:41:32;;;;;;;9.00;7.10;;;8.60;99.90;;;;;;5115680;28;20282;-89
2022/09/22 03:43:59;;;;;;;15.90;7.00;;;8.50;99.90;;;;;;5115482;28;20193;-89
2022/09/22 03:46:26;;;;;;;9.60;7.37;;;8.50;99.90;;;;;;5115256;28;20204;-88
2022/09/22 03:48:52;;;;;;;9.13;7.83;;;8.50;99.90;;;;;;5114332;28;20200;-89
2022/09/22 03:51:19;;;;;;;9.00;6.60;;;8.50;99.90;;;;;;5115224;28;20215;-89
2022/09/22 03:53:48;;;;;;;7.93;6.77;;;8.50;99.90;;;;;;5115287;28;20204;-89
2022/09/22 03:56:17;;;;;;;9.23;7.53;;;8.50;99.90;;;;;;5115326;28;20228;-89
2022/09/22 03:58:50;;;;;;;12.50;7.97;;;8.40;99.90;;;;;;5114778;28;20231;-89
2022/09/22 04:01:17;;;;;;;9.00;6.77;;;8.40;99.90;;;;;;5114890;28;20193;-89
2022/09/22 04:03:45;;;;;;;8.33;6.90;;;8.40;99.90;;;;;;5115343;28;20199;-89
2022/09/22 04:06:13;;;;;;;22.93;8.47;;;8.30;99.90;;;;;;5115246;28;20235;-88
2022/09/22 04:08:39;;;;;;;17.10;7.23;;;8.30;99.90;;;;;;5115353;28;20191;-88
2022/09/22 04:11:07;;;;;;;9.50;7.20;;;8.30;99.90;;;;;;5114725;28;20194;-88
2022/09/22 04:13:35;;;;;;;11.60;7.53;;;8.30;99.90;;;;;;5114390;28;20193;-88
2022/09/22 04:16:05;;;;;;;10.50;6.87;;;8.30;99.90;;;;;;5114023;28;20286;-88
2022/09/22 04:18:34;;;;;;;14.33;7.17;;;8.30;99.90;;;;;;5114452;28;20189;-89
2022/09/22 04:21:01;;;;;;;9.23;6.67;;;8.30;99.90;;;;;;5114734;28;20200;-88
2022/09/22 04:23:28;;;;;;;13.95;8.32;;;8.20;99.90;;;;;;5113957;28;20489;-89
2022/09/22 04:25:54;;;;;;;13.57;8.00;;;8.30;99.90;;;;;;5114385;28;20212;-89
2022/09/22 04:28:21;;;;;;;15.63;7.80;;;8.40;99.90;;;;;;5114471;28;20215;-87
2022/09/22 04:30:49;;;;;;;15.43;8.10;;;8.30;99.90;;;;;;5114496;28;20211;-88
2022/09/22 04:33:17;;;;;;;11.03;8.10;;;8.30;99.90;;;;;;5114438;28;20195;-87
2022/09/22 04:35:43;;;;;;;12.87;7.87;;;8.20;99.90;;;;;;5114434;28;20212;-87
2022/09/22 04:38:13;;;;;;;7.87;7.03;;;8.10;99.90;;;;;;5114147;28;20539;-86
2022/09/22 04:40:40;;;;;;;14.43;6.43;;;8.10;99.90;;;;;;5114196;28;20233;-86
2022/09/22 04:43:07;;;;;;;8.77;7.00;;;8.10;99.90;;;;;;5114443;28;20196;-85
2022/09/22 04:45:35;;;;;;;7.70;6.53;;;8.10;99.90;;;;;;5113888;28;20185;-86
2022/09/22 04:48:04;;;;;;;10.10;7.10;;;8.10;99.90;;;;;;5113634;28;20203;-87
2022/09/22 04:50:31;;;;;;;13.77;8.00;;;8.10;99.90;;;;;;5113617;28;20196;-88
2022/09/22 04:52:59;;;;;;;10.80;6.80;;;8.10;99.90;;;;;;5114113;28;20202;-86
2022/09/22 04:55:26;;;;;;;10.47;7.03;;;8.10;99.90;;;;;;5114197;28;20213;-89
2022/09/22 04:57:55;;;;;;;14.03;8.17;;;8.10;99.90;;;;;;5113886;28;20212;-88
2022/09/22 05:00:23;;;;;;;12.97;7.80;;;8.10;99.90;;;;;;5120402;28;20221;-86
2022/09/22 05:02:50;;;;;;;7.67;6.43;;;8.20;99.90;;;;;;5134339;27;20643;-88
2022/09/22 05:05:20;;;;;;;9.90;7.07;;;8.10;99.90;;;;;;5134385;27;20192;-87
2022/09/22 05:07:53;;;;;;;9.30;6.70;;;8.20;99.90;;;;;;5134862;27;20201;-88
2022/09/22 05:10:24;;;;;;;15.53;7.47;;;8.10;99.90;;;;;;5134795;27;20195;-86
2022/09/22 05:12:52;;;;;;;9.50;6.97;;;8.20;99.90;;;;;;5134447;27;20678;-88
2022/09/22 05:15:21;;;;;;;11.50;7.43;;;8.20;99.90;;;;;;5134482;27;20203;-89
2022/09/22 05:17:51;;;;;;;7.87;6.60;;;8.20;99.90;;;;;;5134526;27;20550;-88
2022/09/22 05:20:20;;;;;;;9.63;6.80;;;8.10;99.90;;;;;;5134136;27;20214;-86
2022/09/22 05:22:47;;;;;;;7.40;6.03;;;8.10;99.90;;;;;;5134270;27;20210;-86
2022/09/22 05:25:18;;;;;;;10.53;7.10;;;8.00;99.90;;;;;;5134235;27;20196;-88
2022/09/22 05:27:47;;;;;;;10.70;6.83;;;7.90;99.90;;;;;;5134360;27;20196;-86
2022/09/22 05:30:16;;;;;;;9.70;6.83;;;7.90;99.90;;;;;;5133683;27;20678;-87
2022/09/22 05:32:43;;;;;;;16.10;6.63;;;8.00;99.90;;;;;;5134421;27;20199;-87
2022/09/22 05:35:13;;;;;;;9.87;6.53;;;8.00;99.90;;;;;;5133994;27;20253;-88
2022/09/22 05:37:43;;;;;;;9.27;6.57;;;8.00;99.90;;;;;;5134070;27;20600;-88
2022/09/22 05:40:11;;;;;;;10.70;6.83;;;7.90;99.90;;;;;;5134374;27;20192;-88
2022/09/22 05:42:40;;;;;;;7.27;6.53;;;7.90;99.90;;;;;;5134499;27;20200;-87
2022/09/22 05:45:08;;;;;;;12.53;6.90;;;7.90;99.90;;;;;;5134461;27;20188;-88
2022/09/22 05:47:37;;;;;;;8.57;6.53;;;7.90;99.90;;;;;;5134405;27;20204;-87
2022/09/22 05:50:04;;;;;;;7.23;6.50;;;7.90;99.90;;;;;;5134128;27;20211;-88
2022/09/22 05:52:32;;;;;;;10.83;7.10;;;8.00;99.90;;;;;;5134344;27;20208;-88
2022/09/22 05:55:00;;;;;;;9.43;7.00;;;8.00;99.90;;;;;;5133987;27;20204;-88
2022/09/22 05:57:27;;;;;;;20.50;7.93;;;8.10;99.90;;;;;;5134082;27;20234;-89
2022/09/22 05:59:55;;;;;;;8.87;7.17;;;8.20;99.90;;;;;;5134303;27;20232;-88
2022/09/22 06:02:28;;;;;;;14.47;7.07;;;8.30;99.90;;;;;;5134114;27;20650;-89
2022/09/22 06:04:54;;;;;;;16.30;8.47;;;8.20;99.90;;;;;;5134508;27;20188;-87
2022/09/22 06:07:22;;;;;;;13.57;7.37;;;8.30;99.90;;;;;;5134167;27;20211;-88
2022/09/22 06:09:50;;;;;;;10.23;6.90;;;8.30;99.90;;;;;;5134314;27;20247;-88
2022/09/22 06:12:19;;;;;;;9.67;6.83;;;8.20;99.90;;;;;;5135107;27;20194;-88
2022/09/22 06:14:45;;;;;;;9.73;6.90;;;8.20;99.90;;;;;;5137659;27;20204;-89
2022/09/22 06:17:13;;;;;;;12.40;6.77;;;8.30;99.90;;;;;;5137606;27;20226;-87
2022/09/22 06:19:40;;;;;;;11.00;6.93;;;8.30;99.90;;;;;;5137846;27;20252;-90
2022/09/22 06:22:09;;;;;;;13.73;7.13;;;8.40;99.90;;;;;;5137714;27;20200;-89
2022/09/22 06:24:36;;;;;;;9.87;6.97;;;8.30;99.90;;;;;;5137778;27;20208;-88
2022/09/22 06:27:03;;;;;;;16.17;7.47;;;8.40;99.90;;;;;;5137040;27;20200;-87
2022/09/22 06:29:31;;;;;;;13.97;7.10;;;8.50;99.90;;;;;;5137576;27;20215;-88
2022/09/22 06:31:58;;;;;;;17.03;7.47;;;8.50;99.90;;;;;;5137360;27;20210;-89
2022/09/22 06:34:26;;;;;;;15.90;10.20;;;8.60;99.90;;;;;;5137286;27;20200;-90
2022/09/22 06:36:53;;;;;;;14.10;7.20;;;8.70;99.90;;;;;;5137057;27;20212;-86
2022/09/22 06:39:20;;;;;;;11.30;7.90;;;8.80;99.90;;;;;;5137057;27;20244;-87
2022/09/22 06:41:47;;;;;;;16.57;8.43;;;8.80;99.90;;;;;;5136948;27;20199;-86
2022/09/22 06:44:14;;;;;;;15.73;9.73;;;8.90;99.90;;;;;;5136929;27;20200;-87
2022/09/22 06:46:42;;;;;;;12.63;9.77;;;9.00;99.90;;;;;;5135423;27;20659;-88
2022/09/22 06:49:10;;;;;;;17.20;10.37;;;9.00;99.90;;;;;;5136738;27;20202;-87
2022/09/22 06:51:37;;;;;;;13.77;9.63;;;9.10;99.90;;;;;;5137019;27;20227;-87
2022/09/22 06:54:06;;;;;;;14.00;10.13;;;9.00;99.90;;;;;;5137427;27;20566;-88
2022/09/22 06:56:35;;;;;;;16.63;10.47;;;9.00;99.90;;;;;;5136358;27;20235;-88
2022/09/22 06:59:03;;;;;;;13.53;10.10;;;9.10;99.90;;;;;;5136513;27;20230;-88
2022/09/22 07:01:30;;;;;;;12.90;9.73;;;9.20;99.90;;;;;;5137117;27;20188;-87
2022/09/22 07:03:58;;;;;;;15.77;10.57;;;9.10;99.90;;;;;;5137073;27;20222;-87
2022/09/22 07:06:25;;;;;;;12.10;9.00;;;9.10;99.90;;;;;;5136617;27;20609;-86
2022/09/22 07:08:52;;;;;;;13.80;9.97;;;9.20;99.90;;;;;;5136724;27;20214;-87
2022/09/22 07:11:22;;;;;;;12.73;9.17;;;9.30;99.90;;;;;;5123926;27;20197;-89
2022/09/22 07:13:52;;;;;;;12.90;10.37;;;9.40;99.90;;;;;;5127676;27;20275;-86
2022/09/22 07:16:20;;;;;;;15.63;10.60;;;9.50;99.90;;;;;;5136351;27;20224;-87
2022/09/22 07:18:49;;;;;;;12.73;9.80;;;9.70;99.90;;;;;;5136316;27;20299;-86
2022/09/22 07:21:19;;;;;;;16.60;11.73;;;9.80;99.90;;;;;;5136818;27;20553;-86
2022/09/22 07:23:48;;;;;;;17.50;11.47;;;10.00;99.90;;;;;;5136022;27;20202;-85
2022/09/22 07:26:18;;;;;;;14.40;10.93;;;10.00;99.90;;;;;;5135948;27;20191;-87
2022/09/22 07:28:50;;;;;;;13.80;10.80;;;10.10;99.90;;;;;;5135549;27;20211;-86
2022/09/22 07:31:17;;;;;;;14.13;10.80;;;10.30;99.90;;;;;;5136006;27;20195;-86
2022/09/22 07:33:46;;;;;;;18.43;10.83;;;10.40;99.90;;;;;;5134557;27;20655;-90
2022/09/22 07:36:15;;;;;;;19.47;10.77;;;10.50;99.90;;;;;;5130865;27;20211;-89
2022/09/22 07:38:48;;;;;;;16.53;11.20;;;10.60;99.90;;;;;;5125298;27;20192;-88
2022/09/22 07:41:18;;;;;;;15.37;10.73;;;10.80;99.90;;;;;;5132982;27;20228;-86
2022/09/22 07:43:45;;;;;;;17.27;10.63;;;10.90;99.90;;;;;;5123637;27;20228;-86
2022/09/22 07:46:12;;;;;;;16.47;11.00;;;11.10;99.90;;;;;;5125596;27;20189;-88
2022/09/22 07:48:44;;;;;;;18.53;10.93;;;11.20;99.90;;;;;;5123553;27;20200;-88
2022/09/22 07:51:17;;;;;;;19.93;10.97;;;11.40;99.90;;;;;;5123301;27;20530;-88
2022/09/22 07:53:46;;;;;;;15.70;11.00;;;11.60;99.90;;;;;;5126639;27;20227;-85
2022/09/22 07:56:14;;;;;;;27.67;10.97;;;11.70;99.90;;;;;;5124096;27;20199;-87
2022/09/22 07:58:44;;;;;;;18.80;9.63;;;11.90;99.90;;;;;;5122860;27;20224;-84
2022/09/22 08:01:12;;;;;;;13.27;10.47;;;12.00;99.90;;;;;;5125215;27;20196;-84
2022/09/22 08:03:38;;;;;;;19.93;10.47;;;12.10;99.90;;;;;;5123426;27;20203;-86
2022/09/22 08:06:10;;;;;;;17.80;10.77;;;12.10;99.90;;;;;;5125094;27;20199;-84
2022/09/22 08:08:38;;;;;;;16.80;10.70;;;12.20;99.90;;;;;;5119867;27;20279;-84
2022/09/22 08:11:14;;;;;;;23.63;10.40;;;12.40;99.90;;;;;;5126522;27;20203;-85
2022/09/22 08:13:42;;;;;;;19.43;10.83;;;12.50;99.90;;;;;;5114514;28;20188;-84
2022/09/22 08:16:10;;;;;;;21.17;12.37;;;12.60;99.90;;;;;;5114502;28;20540;-86
2022/09/22 08:18:38;;;;;;;18.77;11.23;;;12.60;99.90;;;;;;5114698;28;20207;-85
2022/09/22 08:21:06;;;;;;;31.27;12.20;;;12.80;99.90;;;;;;5114545;28;20206;-84
2022/09/22 08:23:34;;;;;;;21.47;11.67;;;13.00;99.90;;;;;;5114165;28;20655;-85
2022/09/22 08:26:06;;;;;;;17.67;11.13;;;13.20;99.90;;;;;;5114721;28;20195;-85
2022/09/22 08:28:35;;;;;;;22.67;11.53;;;13.40;99.90;;;;;;5114893;28;20567;-89
2022/09/22 08:31:03;;;;;;;21.53;12.63;;;13.40;99.90;;;;;;5114423;28;20655;-85
2022/09/22 08:33:31;;;;;;;18.17;11.50;;;13.60;99.90;;;;;;5114318;28;20204;-84
2022/09/22 08:36:02;;;;;;;18.70;10.93;;;13.60;99.90;;;;;;5113724;28;20228;-84
2022/09/22 08:38:29;;;;;;;23.27;11.37;;;13.70;99.90;;;;;;5113809;28;20228;-84
2022/09/22 08:41:07;;;;;;;18.33;11.20;;;13.60;99.90;;;;;;5113881;28;20632;-85
2022/09/22 08:43:51;;;;;;;18.63;11.43;;;13.80;99.90;;;;;;5114480;28;20204;-85
2022/09/22 08:46:18;;;;;;;18.07;11.23;;;13.80;99.90;;;;;;5114202;28;20206;-84
2022/09/22 08:51:53;;;;;;;21.40;11.03;;;14.00;99.90;;;;;;5114251;28;20702;-84
2022/09/22 08:54:24;;;;;;;32.42;14.05;;;14.20;99.90;;;;;;5113029;28;20436;-86
2022/09/22 08:57:09;;;;;;;13.63;10.07;;;14.30;99.90;;;;;;5114020;28;20707;-84
2022/09/22 08:59:45;;;;;;;17.10;10.17;;;14.40;99.90;;;;;;5113717;28;20305;-84
2022/09/22 09:02:41;;;;;;;16.70;9.90;;;14.60;99.90;;;;;;5114053;28;20211;-83
2022/09/22 09:05:39;;;;;;;13.57;9.37;;;14.80;99.90;;;;;;5078251;28;20586;-85
2022/09/22 09:08:21;;;;;;;16.07;9.03;;;15.00;99.90;;;;;;5114015;28;20253;-84
2022/09/22 09:10:54;;;;;;;14.67;8.70;;;15.20;99.90;;;;;;5113870;28;20190;-84
2022/09/22 09:13:35;;;;;;;15.30;8.73;;;15.40;99.90;;;;;;5113853;28;20206;-88
2022/09/22 09:16:19;;;;;;;10.60;7.87;;;15.40;99.90;;;;;;5115431;28;20714;-85
2022/09/22 09:18:55;;;;;;;10.50;8.10;;;15.40;99.90;;;;;;5114479;28;20229;-85
2022/09/22 09:21:24;;;;;;;12.10;8.90;;;15.40;99.90;;;;;;5113087;28;20888;-85
2022/09/22 09:23:54;;;;;;;10.57;7.93;;;15.40;99.90;;;;;;5113951;28;20573;-84
2022/09/22 09:26:22;;;;;;;11.10;7.00;;;15.60;99.90;;;;;;5113756;28;20201;-83
2022/09/22 09:28:53;;;;;;;11.43;7.40;;;15.60;99.90;;;;;;5113411;28;20559;-84
2022/09/22 09:31:28;;;;;;;12.87;7.37;;;15.80;99.90;;;;;;5113414;28;20219;-83
2022/09/22 09:33:58;;;;;;;15.33;7.97;;;16.00;99.90;;;;;;5113576;28;20200;-83
2022/09/22 09:36:30;;;;;;;9.17;6.07;;;16.10;99.90;;;;;;5113386;28;20250;-83
2022/09/22 09:38:58;;;;;;;11.73;7.13;;;16.10;99.90;;;;;;5113048;28;20224;-83
2022/09/22 09:41:31;;;;;;;11.03;5.70;;;16.20;99.90;;;;;;5113086;28;20208;-83
2022/09/22 09:43:59;;;;;;;7.10;5.80;;;16.30;99.90;;;;;;5113247;28;20559;-84
2022/09/22 09:46:43;;;;;;;8.60;6.10;;;16.50;99.90;;;;;;5114577;28;20203;-83
2022/09/22 09:49:13;;;;;;;9.03;5.53;;;16.50;99.90;;;;;;5117127;28;20194;-84
2022/09/22 09:51:43;;;;;;;9.40;6.50;;;16.30;99.90;;;;;;5117072;28;20221;-83
2022/09/22 09:54:13;;;;;;;9.20;5.60;;;16.30;99.90;;;;;;5117809;28;20209;-83
2022/09/22 09:57:02;;;;;;;6.93;5.83;;;16.50;99.90;;;;;;5116592;28;20205;-89
2022/09/22 10:02:20;;;;;;;9.93;4.23;;;16.70;99.90;;;;;;5116800;28;20587;-84
2022/09/22 10:04:50;;;;;;;6.83;4.83;;;16.70;99.90;;;;;;5117163;28;20203;-83
2022/09/22 10:07:20;;;;;;;8.50;4.97;;;16.70;99.90;;;;;;5117111;28;20203;-83
2022/09/22 10:09:48;;;;;;;5.83;4.23;;;16.90;99.90;;;;;;5116839;28;20197;-83
2022/09/22 10:12:29;;;;;;;9.27;4.83;;;16.90;99.90;;;;;;5116861;28;20197;-84
2022/09/22 10:14:57;;;;;;;7.40;4.30;;;17.10;99.90;;;;;;5116757;28;20193;-83
2022/09/22 10:17:29;;;;;;;7.00;3.93;;;17.10;99.90;;;;;;5117022;28;20224;-84
2022/09/22 10:20:16;;;;;;;4.67;3.33;;;17.30;99.90;;;;;;5116139;28;20550;-83
2022/09/22 10:22:44;;;;;;;6.40;3.10;;;17.30;99.90;;;;;;5116327;28;20212;-83
2022/09/22 10:25:22;;;;;;;3.17;2.93;;;17.40;99.90;;;;;;5116642;28;20246;-82
2022/09/22 10:28:03;;;;;;;3.63;3.30;;;17.30;99.90;;;;;;5116400;28;20565;-83
2022/09/22 10:30:32;;;;;;;4.53;2.80;;;17.40;99.90;;;;;;5116054;28;20228;-83
2022/09/22 10:33:16;;;;;;;4.93;3.10;;;17.30;99.90;;;;;;5116459;28;20551;-83
2022/09/22 10:35:45;;;;;;;6.77;2.97;;;17.30;99.90;;;;;;5116242;28;20220;-83
2022/09/22 10:38:19;;;;;;;4.30;2.80;;;17.30;99.90;;;;;;5115150;28;20229;-83
2022/09/22 10:40:53;;;;;;;3.80;2.53;;;17.50;99.90;;;;;;5116174;28;20200;-83
2022/09/22 10:43:43;;;;;;;5.07;2.50;;;17.60;99.90;;;;;;5116110;28;20669;-83
2022/09/22 10:46:39;;;;;;;3.90;2.60;;;17.90;99.90;;;;;;5114746;28;20770;-84
2022/09/22 10:49:14;;;;;;;3.83;2.50;;;18.20;99.90;;;;;;5115486;28;20208;-82
2022/09/22 10:51:56;;;;;;;4.17;2.30;;;18.10;99.90;;;;;;5115763;28;20207;-83
2022/09/22 10:54:34;;;;;;;3.33;2.30;;;17.90;99.90;;;;;;5116043;28;20215;-83
2022/09/22 10:57:09;;;;;;;4.03;2.70;;;17.90;99.90;;;;;;5115496;28;20191;-83
2022/09/22 10:59:47;;;;;;;4.87;2.53;;;18.00;99.90;;;;;;5115192;28;20230;-83
2022/09/22 11:02:33;;;;;;;6.23;2.83;;;18.10;99.90;;;;;;5115588;28;20204;-83
2022/09/22 11:05:17;;;;;;;2.67;2.40;;;18.10;99.90;;;;;;5116280;28;20296;-83
2022/09/22 11:13:45;;;;;;;2.53;1.97;;;18.40;99.90;;;;;;5131070;27;20715;-86
2022/09/22 11:16:36;;;;;;;3.87;2.40;;;18.40;99.90;;;;;;5118650;27;20212;-87
2022/09/22 11:19:24;;;;;;;4.13;3.20;;;18.60;99.90;;;;;;5126131;27;20230;-87
2022/09/22 11:22:09;;;;;;;5.80;2.80;;;18.80;99.90;;;;;;5115814;27;20230;-87
2022/09/22 11:24:59;;;;;;;3.67;2.10;;;18.80;99.90;;;;;;5115746;28;20674;-85
2022/09/22 11:27:39;;;;;;;4.77;3.33;;;18.70;99.90;;;;;;5117951;27;20204;-88
2022/09/22 11:30:23;;;;;;;5.47;2.57;;;18.60;99.90;;;;;;5120635;27;20230;-85
2022/09/22 11:33:26;;;;;;;5.40;2.40;;;18.50;99.90;;;;;;5115340;27;20227;-86
2022/09/22 11:36:34;;;;;;;4.87;1.90;;;18.50;99.90;;;;;;5122293;27;20211;-88
2022/09/22 11:39:25;;;;;;;2.10;1.87;;;18.60;99.90;;;;;;5032375;28;20231;-85
2022/09/22 11:42:05;;;;;;;4.47;2.17;;;18.80;99.90;;;;;;5115345;28;20356;-88
2022/09/22 11:44:38;;;;;;;2.93;2.13;;;18.80;99.90;;;;;;5115350;28;20212;-85
2022/09/22 11:47:37;;;;;;;2.60;2.13;;;18.80;99.90;;;;;;5114957;28;20211;-84
2022/09/22 11:50:26;;;;;;;4.10;2.87;;;18.70;99.90;;;;;;5109808;28;20214;-84
2022/09/22 11:53:10;;;;;;;2.70;2.03;;;18.60;99.90;;;;;;5114853;28;20211;-86
2022/09/22 11:55:45;;;;;;;2.23;1.60;;;18.50;99.90;;;;;;5118123;27;21698;-87
2022/09/22 11:58:15;;;;;;;5.33;1.63;;;18.50;99.90;;;;;;5135316;27;20690;-85
2022/09/22 12:00:48;;;;;;;2.73;2.17;;;18.60;99.90;;;;;;5135778;27;20206;-86
2022/09/22 12:03:20;;;;;;;5.53;2.00;;;18.80;99.90;;;;;;5135393;27;20209;-87
2022/09/22 12:05:51;;;;;;;4.30;1.33;;;18.80;99.90;;;;;;5135754;27;20203;-85
2022/09/22 12:08:21;;;;;;;3.88;1.60;;;18.50;99.90;;;;;;5135619;27;20439;-86
2022/09/22 12:10:50;;;;;;;2.73;1.70;;;18.60;99.90;;;;;;5134526;27;20199;-85
2022/09/22 12:13:20;;;;;;;4.67;1.60;;;18.70;99.90;;;;;;5135319;27;20204;-84
2022/09/22 12:15:58;;;;;;;4.80;1.87;;;18.90;99.90;;;;;;5135515;27;20184;-86
2022/09/22 12:18:34;;;;;;;7.03;2.27;;;18.90;99.90;;;;;;5134970;27;20218;-86
2022/09/22 12:21:05;;;;;;;5.90;2.33;;;18.90;99.90;;;;;;5135815;27;20222;-85
2022/09/22 12:23:40;;;;;;;3.03;2.73;;;19.10;99.90;;;;;;5135346;27;20214;-85
2022/09/22 12:26:11;;;;;;;6.37;2.97;;;19.20;99.90;;;;;;5135032;27;20203;-84
2022/09/22 12:28:40;;;;;;;3.50;2.57;;;19.30;99.90;;;;;;5134199;27;20195;-86
2022/09/22 12:31:11;;;;;;;4.47;2.63;;;19.20;99.90;;;;;;5135196;27;20188;-84
2022/09/22 12:33:46;;;;;;;5.10;2.97;;;19.30;99.90;;;;;;5134703;27;20192;-83
2022/09/22 12:36:13;;;;;;;2.97;2.50;;;19.40;99.90;;;;;;5134650;27;20206;-83
2022/09/22 12:38:40;;;;;;;5.63;3.40;;;19.20;99.90;;;;;;5133952;27;20219;-83
2022/09/22 12:41:09;;;;;;;5.93;2.17;;;19.10;99.90;;;;;;5134701;27;20184;-83
2022/09/22 12:43:37;;;;;;;6.33;2.20;;;19.30;99.90;;;;;;5134043;27;20189;-83
2022/09/22 12:46:22;;;;;;;12.53;3.10;;;19.50;99.90;;;;;;5134516;27;20696;-83
2022/09/22 12:48:49;;;;;;;3.97;2.90;;;19.50;99.90;;;;;;5134273;27;20191;-83
2022/09/22 12:51:29;;;;;;;2.57;2.30;;;19.60;99.90;;;;;;5134555;27;20207;-82
2022/09/22 12:54:29;;;;;;;7.10;3.60;;;19.60;99.90;;;;;;5134376;27;20260;-83
2022/09/22 12:56:59;;;;;;;5.33;3.20;;;19.70;99.90;;;;;;5134440;27;20188;-84
2022/09/22 12:59:55;;;;;;;4.90;3.50;;;19.60;99.90;;;;;;5133562;27;20238;-83
2022/09/22 13:02:30;;;;;;;5.83;3.80;;;19.40;99.90;;;;;;5134413;27;20202;-83
2022/09/22 13:05:32;;;;;;;5.37;3.10;;;19.50;99.90;;;;;;5134069;27;20201;-82
2022/09/22 13:07:59;;;;;;;3.30;2.87;;;19.50;99.90;;;;;;5134254;28;20184;-83
2022/09/22 13:10:54;;;;;;;4.57;2.97;;;19.60;99.90;;;;;;5134008;28;20207;-83
2022/09/22 13:13:41;;;;;;;5.53;2.83;;;19.70;99.90;;;;;;5134002;28;20196;-83
2022/09/22 13:16:37;;;;;;;5.90;3.23;;;19.70;99.90;;;;;;5133949;28;20191;-82
2022/09/22 13:19:09;;;;;;;4.70;3.20;;;19.90;99.90;;;;;;5133659;28;20234;-84
2022/09/22 13:21:36;;;;;;;36.13;4.50;;;20.00;99.90;;;;;;5136021;27;20266;-83
2022/09/22 13:24:06;;;;;;;8.73;3.90;;;19.90;99.90;;;;;;5138575;27;20371;-86